»·PEaware :: UAL180 KLAS-KLAX

UAL180 :: KLAS-KLAX

FLIGHT INFORMATION

Flight Status: Arrived
Operator:
United Airlines
More flights by this operator :: More flights under this callsign
Pilot: Etienne B. (28927)
Aircraft: AIRBUS A320
(A320)
More flights by this aircraft type
Origin: KLAS McCarran Intl
United States
Destination: KLAX Los Angeles Intl
United States
More flights between these airports :: More routes between these airports
Route: BOACH8 RIKII SHTNR ANJLL4
File this flight plan on PilotEdge
Remarks: RMK / SIMBRIEF
Altitude:
(Current/Filed)
30,000ft
Speed:
(Current/Filed)
447kts
Departed: 16-May-20 06:55 PM
Arrived: 16-May-20 07:40 PM
Distance/Time
Traveled:
205nm/0:45
Distance/Time
To Go:
Arrived

Flight Plot

Page will automatically refresh every two minutes.


Map Options




Map Legend


Flown Route
Filed Route
Departure Airport
Arrival Airport
Navaid (VOR, NDB)
Fix

Horizontal Profiles

Position Reports

Time Latitude Longitude Heading Altitude Ground
Speed
16-May-20 18:28 36.085349 -115.154923 90 2115ft 0kts
16-May-20 18:29 36.085349 -115.154923 90 2115ft 0kts
16-May-20 18:30 36.085349 -115.154923 90 2115ft 0kts
16-May-20 18:31 36.085349 -115.154923 90 2115ft 0kts
16-May-20 18:32 36.085349 -115.154923 90 2115ft 0kts
16-May-20 18:33 36.085349 -115.154923 90 2115ft 0kts
16-May-20 18:34 36.085349 -115.154923 90 2115ft 0kts
16-May-20 18:35 36.085349 -115.154923 90 2115ft 0kts
16-May-20 18:36 36.085349 -115.154923 90 2115ft 0kts
16-May-20 18:37 36.085349 -115.154923 89 2115ft 0kts
16-May-20 18:38 36.085349 -115.154923 90 2115ft 0kts
16-May-20 18:39 36.085350 -115.155009 89 2115ft 2kts
16-May-20 18:40 36.085348 -115.155755 89 2118ft 2kts
16-May-20 18:41 36.085348 -115.155800 89 2118ft 0kts
16-May-20 18:42 36.085348 -115.155800 90 2118ft 0kts
16-May-20 18:43 36.085348 -115.155800 90 2118ft 0kts
16-May-20 18:44 36.085662 -115.155765 352 2117ft 5kts
16-May-20 18:45 36.086136 -115.155705 23 2116ft 0kts
16-May-20 18:46 36.086588 -115.155459 23 2114ft 0kts
16-May-20 18:47 36.086588 -115.155459 23 2114ft 0kts
16-May-20 18:48 36.086588 -115.155459 23 2114ft 0kts
16-May-20 18:49 36.087558 -115.155234 349 2111ft 6kts
16-May-20 18:50 36.091521 -115.155336 14 2101ft 19kts
16-May-20 18:51 36.097639 -115.152014 344 2078ft 13kts
16-May-20 18:52 36.097949 -115.152374 298 2078ft 0kts
16-May-20 18:53 36.097820 -115.153977 205 2083ft 9kts
16-May-20 18:54 36.068528 -115.170727 201 2691ft 184kts
16-May-20 18:55 36.017708 -115.200644 212 4926ft 229kts
16-May-20 18:56 35.983853 -115.274198 239 7277ft 272kts
16-May-20 18:57 35.918875 -115.314876 179 9670ft 293kts
16-May-20 18:58 35.831130 -115.313639 173 11211ft 346kts
16-May-20 18:59 35.731870 -115.301066 174 13247ft 366kts
16-May-20 19:00 35.629183 -115.296703 181 15421ft 375kts
16-May-20 19:01 35.523805 -115.301060 185 17419ft 383kts
16-May-20 19:02 35.427714 -115.358418 210 19242ft 392kts
16-May-20 19:03 35.332996 -115.427228 210 20959ft 399kts
16-May-20 19:04 35.236640 -115.497014 210 22534ft 407kts
16-May-20 19:05 35.138624 -115.568070 213 23984ft 414kts
16-May-20 19:06 35.056446 -115.665232 225 25305ft 420kts
16-May-20 19:07 34.975026 -115.769128 226 26502ft 428kts
16-May-20 19:08 34.892048 -115.874697 227 27470ft 438kts
16-May-20 19:09 34.807079 -115.982433 228 28763ft 438kts
16-May-20 19:10 34.723496 -116.088618 228 29931ft 433kts
16-May-20 19:11 34.640646 -116.194034 228 29881ft 431kts
16-May-20 19:12 34.561411 -116.294406 228 29032ft 396kts
16-May-20 19:13 34.486589 -116.389038 228 28162ft 388kts
16-May-20 19:14 34.414344 -116.484845 240 27268ft 383kts
16-May-20 19:15 34.367285 -116.597502 245 25775ft 368kts
16-May-20 19:16 34.323259 -116.704628 245 24118ft 356kts
16-May-20 19:17 34.281877 -116.807714 245 22547ft 343kts
16-May-20 19:18 34.241997 -116.906579 244 21133ft 328kts
16-May-20 19:19 34.207075 -116.997806 251 19697ft 320kts
16-May-20 19:20 34.182228 -117.090034 251 18300ft 316kts
16-May-20 19:21 34.157113 -117.182342 251 16892ft 312kts
16-May-20 19:22 34.129193 -117.283724 251 15349ft 307kts
16-May-20 19:23 34.102359 -117.381110 252 13819ft 302kts
16-May-20 19:24 34.078704 -117.476153 253 12342ft 298kts
16-May-20 19:25 34.048419 -117.567344 246 10742ft 301kts
16-May-20 19:26 34.016387 -117.656276 246 9632ft 285kts
16-May-20 19:27 34.000779 -117.745617 262 8330ft 279kts
16-May-20 19:28 33.992074 -117.835098 263 7048ft 273kts
16-May-20 19:29 33.984198 -117.915204 263 5887ft 239kts
16-May-20 19:30 33.978669 -117.985794 262 4882ft 235kts
16-May-20 19:31 33.971759 -118.051265 263 3933ft 236kts
16-May-20 19:32 33.964951 -118.116127 263 3623ft 211kts
16-May-20 19:33 33.959034 -118.172730 263 3498ft 177kts
16-May-20 19:34 33.954045 -118.219128 262 2737ft 151kts
16-May-20 19:35 33.949924 -118.259928 262 2160ft 146kts
16-May-20 19:36 33.945572 -118.302885 261 1432ft 142kts
16-May-20 19:37 33.941439 -118.342390 261 796ft 133kts
16-May-20 19:38 33.937729 -118.378954 261 233ft 131kts
16-May-20 19:39 33.935856 -118.402356 285 125ft 31kts
16-May-20 19:40 33.936089 -118.403187 289 127ft 0kts
16-May-20 19:41 33.936236 -118.404650 263 129ft 7kts
16-May-20 19:42 33.936231 -118.408749 320 133ft 12kts
16-May-20 19:43 33.937703 -118.409095 353 133ft 6kts
16-May-20 19:44 33.938729 -118.408564 79 133ft 4kts
16-May-20 19:45 33.939396 -118.407268 40 132ft 7kts

Navigation Log

Ident Type
Flight plan parsing failed, navigation log unavailable